Terminal Aerodrome Forecast
Issued by NWS Lubbock, TX

Home | Current Version | Previous Version | Text Only | Print | Product List | Glossary On
Versions: 1 2 3 4 5 6 7 8 9 10 11 12 13 14
000
FTUS44 KLUB 260744 AAA
TAFLBB
TAF AMD
KLBB 260744Z 2608/2706 32015G25KT P6SM VCSH BKN120 OVC250
     FM261000 36020G30KT P6SM BKN050
      TEMPO 2611/2615 BKN015
     FM262100 32011KT P6SM SKC=

USA.gov is the U.S. government's official web portal to all federal, state and local government web resources and services.